Time;durP1;ratioP1;P1;durP2;ratioP2;P2;SDS_P1;SDS_P2;PMS_P1;PMS_P2;Temp;Humidity;BMP_temperature;BMP_pressure;BME280_temperature;BME280_humidity;BME280_pressure;Samples;Min_cycle;Max_cycle;Signal;HPM_P1;HPM_P2
2022/08/24 00:01:50;;;;;;;;;;;;;;;16.23;56.85;100338.34;5071502;28;1009;-59
2022/08/24 00:04:16;;;;;;;;;;;;;;;16.23;57.04;100333.66;5063279;28;969;-59
2022/08/24 00:06:41;;;;;;;;;;;;;;;16.22;57.11;100331.22;5068508;28;2336;-59
2022/08/24 00:09:07;;;;;;;;;;;;;;;16.20;57.07;100314.19;5056357;28;1025;-59
2022/08/24 00:11:32;;;;;;;;;;;;;;;16.19;56.86;100315.31;5066446;28;1033;-59
2022/08/24 00:13:58;;;;;;;;;;;;;;;16.19;57.05;100305.16;5065972;28;957;-59
2022/08/24 00:16:23;;;;;;;;;;;;;;;16.16;56.85;100316.69;5069670;28;1013;-59
2022/08/24 00:18:48;;;;;;;;;;;;;;;16.17;56.80;100310.13;5066640;28;992;-58
2022/08/24 00:21:14;;;;;;;;;;;;;;;16.71;57.93;100316.63;5070305;28;961;-59
2022/08/24 00:23:40;;;;;;;;;;;;;;;17.34;58.39;100312.28;5063207;28;1780;-60
2022/08/24 00:26:05;;;;;;;;;;;;;;;16.83;58.97;100319.03;5072890;28;1104;-59
2022/08/24 00:28:31;;;;;;;;;;;;;;;16.69;58.61;100323.50;5072218;28;1913;-58
2022/08/24 00:30:56;;;;;;;;;;;;;;;16.62;58.29;100317.53;5056664;28;1252;-58
2022/08/24 00:33:21;;;;;;;;;;;;;;;16.55;57.97;100313.19;5067185;28;1012;-59
2022/08/24 00:35:47;;;;;;;;;;;;;;;16.51;57.63;100308.53;5064627;28;1255;-59
2022/08/24 00:38:13;;;;;;;;;;;;;;;16.48;57.67;100312.69;5072986;28;1011;-59
2022/08/24 00:40:40;;;;;;;;;;;;;;;16.49;57.49;100308.00;5069789;28;1381;-59
2022/08/24 00:43:06;;;;;;;;;;;;;;;16.46;57.51;100311.31;5056091;28;989;-58
2022/08/24 00:45:55;;;;;;;;;;;;;;;16.46;57.54;100298.41;5049659;28;1543;-57
2022/08/24 00:48:21;;;;;;;;;;;;;;;16.40;57.18;100303.13;5054783;28;1910;-57
2022/08/24 00:51:07;;;;;;;;;;;;;;;16.40;57.39;100314.09;5055528;28;1155;-57
2022/08/24 00:53:37;;;;;;;;;;;;;;;16.41;57.08;100306.66;5063229;28;1789;-57
2022/08/24 00:56:03;;;;;;;;;;;;;;;16.37;57.36;100305.63;5071798;28;1056;-57
2022/08/24 00:58:33;;;;;;;;;;;;;;;16.32;57.42;100298.22;5036630;28;1218;-57
2022/08/24 01:01:01;;;;;;;;;;;;;;;16.32;57.14;100300.97;5069575;28;1187;-57
2022/08/24 01:03:26;;;;;;;;;;;;;;;16.33;57.03;100288.88;5076366;28;1151;-57
2022/08/24 01:05:52;;;;;;;;;;;;;;;16.30;57.34;100289.47;5066373;28;1001;-58
2022/08/24 01:08:19;;;;;;;;;;;;;;;16.32;57.02;100286.44;5065575;28;1973;-58
2022/08/24 01:10:46;;;;;;;;;;;;;;;16.26;57.36;100291.13;5065442;28;914;-58
2022/08/24 01:13:12;;;;;;;;;;;;;;;16.30;57.20;100299.59;5048362;28;1112;-58
2022/08/24 01:15:38;;;;;;;;;;;;;;;16.27;57.25;100290.03;5033880;28;1593;-58
2022/08/24 01:20:52;;;;;;;;;;;;;;;16.24;57.31;100290.59;5053975;28;1013;-58
2022/08/24 01:23:26;;;;;;;;;;;;;;;16.29;56.85;100303.47;5029801;28;1118;-59
2022/08/24 01:25:52;;;;;;;;;;;;;;;16.25;57.27;100314.19;5052280;28;2498;-58
2022/08/24 01:28:18;;;;;;;;;;;;;;;16.24;57.22;100318.00;5058620;28;1983;-59
2022/08/24 01:30:43;;;;;;;;;;;;;;;16.28;56.90;100335.56;5039561;28;967;-59
2022/08/24 01:33:09;;;;;;;;;;;;;;;16.22;56.95;100342.19;5064274;28;962;-59
2022/08/24 01:35:35;;;;;;;;;;;;;;;16.41;57.57;100356.06;5045922;28;1109;-59
2022/08/24 01:38:01;;;;;;;;;;;;;;;17.64;58.48;100359.81;5054842;28;1213;-58
2022/08/24 01:40:34;;;;;;;;;;;;;;;17.04;59.08;100357.34;5053135;28;1114;-59
2022/08/24 01:43:00;;;;;;;;;;;;;;;16.83;58.71;100362.13;5064001;28;994;-59
2022/08/24 01:45:25;;;;;;;;;;;;;;;16.71;58.58;100366.03;5072332;28;1020;-59
2022/08/24 01:47:51;;;;;;;;;;;;;;;16.69;58.32;100379.25;5068571;28;1898;-58
2022/08/24 01:50:16;;;;;;;;;;;;;;;16.62;57.98;100375.16;5072798;28;1072;-58
2022/08/24 01:52:42;;;;;;;;;;;;;;;16.59;57.80;100362.81;5073092;28;1017;-59
2022/08/24 01:55:08;;;;;;;;;;;;;;;16.56;57.60;100353.25;5050879;28;2389;-58
2022/08/24 01:57:34;;;;;;;;;;;;;;;16.53;57.56;100361.22;5037811;28;1569;-59
2022/08/24 02:00:01;;;;;;;;;;;;;;;16.52;57.57;100354.09;5050858;28;1108;-58
2022/08/24 02:02:29;;;;;;;;;;;;;;;16.49;57.45;100347.25;5058327;28;1018;-58
2022/08/24 02:04:54;;;;;;;;;;;;;;;16.49;57.32;100329.97;5048589;28;1562;-58
2022/08/24 02:07:20;;;;;;;;;;;;;;;16.47;57.26;100310.22;5051473;28;1961;-58
2022/08/24 02:09:47;;;;;;;;;;;;;;;16.46;57.13;100305.84;5051934;28;1233;-57
2022/08/24 02:12:14;;;;;;;;;;;;;;;16.46;57.46;100314.06;5044290;28;1308;-58
2022/08/24 02:14:40;;;;;;;;;;;;;;;16.42;57.16;100309.16;5054451;28;1292;-58
2022/08/24 02:17:06;;;;;;;;;;;;;;;16.42;57.12;100303.66;5062849;28;979;-59
2022/08/24 02:19:32;;;;;;;;;;;;;;;16.40;57.41;100299.56;5055976;28;1132;-58
2022/08/24 02:21:58;;;;;;;;;;;;;;;16.36;57.37;100287.50;5075300;28;1162;-58
2022/08/24 02:24:24;;;;;;;;;;;;;;;16.35;57.29;100275.69;5066206;28;1842;-58
2022/08/24 02:26:49;;;;;;;;;;;;;;;16.36;57.44;100274.59;5045766;28;1902;-58
2022/08/24 02:29:16;;;;;;;;;;;;;;;16.33;57.31;100269.69;5047929;28;1092;-58
2022/08/24 02:31:41;;;;;;;;;;;;;;;16.36;57.36;100271.84;5062270;28;969;-57
2022/08/24 02:34:08;;;;;;;;;;;;;;;16.31;57.31;100266.38;5040076;28;998;-59
2022/08/24 02:36:33;;;;;;;;;;;;;;;16.32;57.30;100250.78;5048095;28;1088;-59
2022/08/24 02:38:59;;;;;;;;;;;;;;;16.30;57.31;100251.06;5050186;28;1551;-59
2022/08/24 02:41:24;;;;;;;;;;;;;;;16.31;57.37;100236.22;5046344;28;1116;-59
2022/08/24 02:43:50;;;;;;;;;;;;;;;16.29;57.43;100235.69;5053320;28;1273;-58
2022/08/24 02:46:17;;;;;;;;;;;;;;;16.32;57.29;100235.13;5067972;28;1342;-58
2022/08/24 02:48:43;;;;;;;;;;;;;;;16.34;57.13;100224.69;5051171;28;1983;-58
2022/08/24 02:51:16;;;;;;;;;;;;;;;16.30;57.11;100229.09;5053004;28;1175;-58
2022/08/24 02:53:42;;;;;;;;;;;;;;;16.28;57.31;100214.84;5049200;28;2524;-58
2022/08/24 02:56:07;;;;;;;;;;;;;;;16.26;57.34;100208.84;5051658;28;1230;-60
2022/08/24 02:58:33;;;;;;;;;;;;;;;16.24;57.67;100202.78;5050856;28;1319;-59
2022/08/24 03:00:59;;;;;;;;;;;;;;;16.22;57.48;100197.59;5045077;28;1099;-59
2022/08/24 03:03:25;;;;;;;;;;;;;;;16.23;57.80;100191.00;5046450;28;1175;-59
2022/08/24 03:05:51;;;;;;;;;;;;;;;16.24;57.60;100197.31;5052559;28;1326;-60
2022/08/24 03:08:17;;;;;;;;;;;;;;;16.24;57.46;100191.81;5040718;28;1969;-60
2022/08/24 03:10:43;;;;;;;;;;;;;;;16.23;57.75;100185.53;5054115;28;1241;-60
2022/08/24 03:13:08;;;;;;;;;;;;;;;16.24;57.98;100180.84;5048791;28;1531;-60
2022/08/24 03:15:34;;;;;;;;;;;;;;;16.23;58.02;100180.03;5055737;28;1179;-60
2022/08/24 03:18:00;;;;;;;;;;;;;;;16.27;57.79;100185.78;5043705;28;1235;-59
2022/08/24 03:20:26;;;;;;;;;;;;;;;16.23;57.92;100169.06;5051202;28;1310;-59
2022/08/24 03:22:51;;;;;;;;;;;;;;;16.24;57.78;100169.88;5042379;28;1009;-59
2022/08/24 03:25:17;;;;;;;;;;;;;;;16.24;58.06;100165.22;5064061;28;2253;-58
2022/08/24 03:27:44;;;;;;;;;;;;;;;16.20;57.98;100161.41;5050731;28;1910;-59
2022/08/24 03:30:11;;;;;;;;;;;;;;;16.23;57.89;100162.78;5070909;28;1028;-58
2022/08/24 03:32:38;;;;;;;;;;;;;;;16.23;58.04;100157.28;5054022;28;1197;-58
2022/08/24 03:35:04;;;;;;;;;;;;;;;16.23;57.97;100146.31;5053742;28;1283;-59
2022/08/24 03:37:31;;;;;;;;;;;;;;;16.19;57.83;100132.34;5049371;28;1143;-59
2022/08/24 03:39:57;;;;;;;;;;;;;;;16.21;58.04;100143.03;5066382;28;981;-57
2022/08/24 03:42:23;;;;;;;;;;;;;;;16.18;58.09;100138.91;5051619;28;1190;-58
2022/08/24 03:44:49;;;;;;;;;;;;;;;16.18;58.15;100133.44;5072758;28;1107;-57
2022/08/24 03:47:15;;;;;;;;;;;;;;;16.18;58.19;100118.91;5051281;28;1967;-57
2022/08/24 03:49:40;;;;;;;;;;;;;;;16.22;58.18;100100.78;5070623;28;1101;-57
2022/08/24 03:52:06;;;;;;;;;;;;;;;16.21;57.92;100090.91;5056230;28;1083;-57
2022/08/24 03:54:32;;;;;;;;;;;;;;;16.26;57.74;100099.09;5052789;28;2227;-58
2022/08/24 03:57:00;;;;;;;;;;;;;;;16.24;58.01;100115.84;5042132;28;1248;-58
2022/08/24 03:59:26;;;;;;;;;;;;;;;16.22;57.74;100126.28;5044461;28;1171;-58
2022/08/24 04:01:56;;;;;;;;;;;;;;;16.12;57.90;100118.13;5050146;28;1266;-58
2022/08/24 04:04:22;;;;;;;;;;;;;;;16.21;57.98;100135.59;5030546;28;1245;-60
2022/08/24 04:06:47;;;;;;;;;;;;;;;16.22;57.77;100128.22;5049152;28;1984;-59
2022/08/24 04:09:14;;;;;;;;;;;;;;;16.19;57.89;100139.75;5055670;28;1162;-59
2022/08/24 04:11:44;;;;;;;;;;;;;;;16.21;58.11;100152.06;5056569;28;1333;-59
2022/08/24 04:14:11;;;;;;;;;;;;;;;16.22;57.98;100174.84;5049908;28;1535;-59
2022/08/24 04:16:37;;;;;;;;;;;;;;;16.21;58.05;100219.84;5060247;28;1273;-59
2022/08/24 04:19:13;;;;;;;;;;;;;;;16.18;58.09;100247.84;5060710;28;1276;-59
2022/08/24 04:21:38;;;;;;;;;;;;;;;16.20;57.95;100259.31;5052810;28;1168;-59
2022/08/24 04:24:06;;;;;;;;;;;;;;;16.19;57.77;100254.97;5052212;28;1837;-59
2022/08/24 04:26:31;;;;;;;;;;;;;;;16.14;57.95;100269.50;5055396;28;1370;-57
2022/08/24 04:28:58;;;;;;;;;;;;;;;16.18;57.81;100278.00;5053058;28;1914;-56
2022/08/24 04:31:24;;;;;;;;;;;;;;;16.14;57.96;100294.19;5058038;28;1242;-58
2022/08/24 04:33:49;;;;;;;;;;;;;;;16.17;57.84;100290.91;5049845;28;1335;-57
2022/08/24 04:36:15;;;;;;;;;;;;;;;16.16;57.61;100277.47;5048865;28;1298;-57
2022/08/24 04:38:42;;;;;;;;;;;;;;;16.14;57.84;100280.50;5044169;28;1222;-57
2022/08/24 04:41:29;;;;;;;;;;;;;;;16.13;57.48;100256.09;5045521;28;1797;-57
2022/08/24 04:43:54;;;;;;;;;;;;;;;16.15;57.53;100264.88;5073922;28;1005;-57
2022/08/24 04:46:20;;;;;;;;;;;;;;;16.12;57.54;100277.22;5056777;28;1367;-57
2022/08/24 04:48:46;;;;;;;;;;;;;;;16.16;57.23;100278.28;5050154;28;1979;-59
2022/08/24 04:51:12;;;;;;;;;;;;;;;17.00;58.83;100287.59;5040899;28;1116;-56
2022/08/24 04:53:38;;;;;;;;;;;;;;;17.08;59.25;100279.56;5061247;28;1841;-58
2022/08/24 04:56:03;;;;;;;;;;;;;;;16.72;59.37;100292.75;5045265;28;1234;-57
2022/08/24 04:58:31;;;;;;;;;;;;;;;16.63;58.79;100286.22;5042971;28;1466;-53
2022/08/24 05:00:57;;;;;;;;;;;;;;;16.58;58.65;100295.34;5051089;28;1146;-55
2022/08/24 05:03:23;;;;;;;;;;;;;;;16.52;58.16;100289.06;5042188;28;1292;-57
2022/08/24 05:05:49;;;;;;;;;;;;;;;16.49;58.13;100273.13;5056801;28;1389;-56
2022/08/24 05:08:15;;;;;;;;;;;;;;;16.47;58.13;100289.09;5055477;28;1979;-58
2022/08/24 05:10:41;;;;;;;;;;;;;;;16.41;58.05;100295.69;5058410;28;1119;-59
2022/08/24 05:13:07;;;;;;;;;;;;;;;16.39;57.83;100304.22;5045447;28;1253;-60
2022/08/24 05:15:33;;;;;;;;;;;;;;;16.40;57.45;100316.84;5052553;28;1190;-57
2022/08/24 05:17:59;;;;;;;;;;;;;;;16.34;57.72;100320.72;5071364;28;946;-56
2022/08/24 05:20:25;;;;;;;;;;;;;;;16.32;57.60;100309.19;5047485;28;1160;-59
2022/08/24 05:22:52;;;;;;;;;;;;;;;16.29;57.70;100301.53;5054786;28;1357;-57
2022/08/24 05:25:17;;;;;;;;;;;;;;;16.32;57.39;100294.66;5068665;28;2341;-58
2022/08/24 05:27:43;;;;;;;;;;;;;;;16.31;57.58;100280.09;5049194;28;1906;-60
2022/08/24 05:30:09;;;;;;;;;;;;;;;16.28;57.27;100271.66;5033972;28;1217;-59
2022/08/24 05:32:36;;;;;;;;;;;;;;;16.31;57.40;100257.34;5052522;28;1115;-58
2022/08/24 05:35:03;;;;;;;;;;;;;;;16.23;57.24;100251.38;5075782;28;1001;-56
2022/08/24 05:37:30;;;;;;;;;;;;;;;16.24;57.31;100242.03;5049527;28;1246;-60
2022/08/24 05:40:13;;;;;;;;;;;;;;;16.24;57.31;100235.72;5052418;28;1175;-60
2022/08/24 05:42:41;;;;;;;;;;;;;;;16.24;57.49;100260.41;5048518;28;1323;-56
2022/08/24 05:45:07;;;;;;;;;;;;;;;16.87;57.47;100267.09;5068601;28;1143;-57
2022/08/24 05:47:33;;;;;;;;;;;;;;;17.10;56.04;100284.78;5053346;28;1992;-57
2022/08/24 05:50:04;;;;;;;;;;;;;;;16.53;54.98;100285.19;5045547;28;1402;-57
2022/08/24 05:52:30;;;;;;;;;;;;;;;16.47;53.70;100291.81;5065888;28;1091;-56
2022/08/24 05:54:56;;;;;;;;;;;;;;;16.46;52.62;100300.34;5061686;28;1804;-57
2022/08/24 05:57:23;;;;;;;;;;;;;;;16.41;51.89;100293.78;5054672;28;1154;-58
2022/08/24 06:00:04;;;;;;;;;;;;;;;16.43;51.05;100310.78;5049942;28;1385;-56
2022/08/24 06:02:41;;;;;;;;;;;;;;;16.37;50.70;100311.91;5063984;28;1005;-57
2022/08/24 06:05:07;;;;;;;;;;;;;;;16.40;50.69;100316.03;5054024;28;1191;-54
2022/08/24 06:07:32;;;;;;;;;;;;;;;16.37;50.33;100328.38;5076464;28;1914;-56
2022/08/24 06:09:59;;;;;;;;;;;;;;;16.31;50.46;100337.72;5057516;28;1337;-59
2022/08/24 06:12:24;;;;;;;;;;;;;;;16.40;50.18;100338.78;5050677;28;1123;-57
2022/08/24 06:14:50;;;;;;;;;;;;;;;16.33;50.00;100349.25;5046719;28;1319;-58
2022/08/24 06:17:20;;;;;;;;;;;;;;;16.35;49.74;100355.25;5047504;28;1134;-60
2022/08/24 06:19:46;;;;;;;;;;;;;;;16.48;49.36;100355.75;5048028;28;1166;-57
2022/08/24 06:22:11;;;;;;;;;;;;;;;16.43;49.45;100356.63;5050401;28;1199;-61
2022/08/24 06:27:22;;;;;;;;;;;;;;;16.39;49.29;100372.81;5061224;28;1909;-59
2022/08/24 06:29:55;;;;;;;;;;;;;;;16.39;49.36;100358.28;5056669;28;1154;-59
2022/08/24 06:32:42;;;;;;;;;;;;;;;16.46;48.96;100364.28;5063848;28;1308;-59
2022/08/24 06:35:12;;;;;;;;;;;;;;;16.50;48.60;100368.09;5043395;28;1212;-59
2022/08/24 06:37:37;;;;;;;;;;;;;;;16.51;48.74;100371.66;5063972;28;864;-58
2022/08/24 06:40:04;;;;;;;;;;;;;;;16.52;48.71;100378.78;5051459;28;1281;-60
2022/08/24 06:42:33;;;;;;;;;;;;;;;16.56;48.39;100379.88;5048958;28;1253;-59
2022/08/24 06:44:58;;;;;;;;;;;;;;;16.47;48.66;100374.16;5069445;28;1112;-60
2022/08/24 06:47:24;;;;;;;;;;;;;;;16.55;48.66;100375.47;5052045;28;1979;-62
2022/08/24 06:49:57;;;;;;;;;;;;;;;16.48;48.56;100378.56;5044802;28;1332;-58
2022/08/24 06:52:22;;;;;;;;;;;;;;;16.48;48.59;100378.56;5070956;28;993;-60
2022/08/24 06:54:48;;;;;;;;;;;;;;;16.56;48.40;100382.63;5064449;28;2372;-61
2022/08/24 06:57:13;;;;;;;;;;;;;;;16.62;48.04;100383.41;5054941;28;1099;-61
2022/08/24 06:59:41;;;;;;;;;;;;;;;16.48;48.49;100366.72;5052628;28;2036;-57
2022/08/24 07:02:08;;;;;;;;;;;;;;;16.52;48.25;100365.91;5064706;28;943;-56
2022/08/24 07:04:33;;;;;;;;;;;;;;;16.56;48.14;100364.25;5055970;28;1355;-56
2022/08/24 07:07:11;;;;;;;;;;;;;;;16.60;48.08;100362.53;5076068;28;1968;-55
2022/08/24 07:09:37;;;;;;;;;;;;;;;16.46;48.25;100349.75;5050951;28;1521;-56
2022/08/24 07:12:03;;;;;;;;;;;;;;;16.62;47.78;100359.53;5064756;28;1005;-54
2022/08/24 07:14:29;;;;;;;;;;;;;;;16.58;47.76;100359.28;5047892;28;1417;-54
2022/08/24 07:16:55;;;;;;;;;;;;;;;16.64;47.62;100357.31;5039050;28;1342;-54
2022/08/24 07:19:22;;;;;;;;;;;;;;;16.58;47.86;100364.75;5053860;28;1306;-55
2022/08/24 07:21:47;;;;;;;;;;;;;;;16.59;48.00;100379.28;5049196;28;1210;-56
2022/08/24 07:24:13;;;;;;;;;;;;;;;16.72;47.80;100381.44;5062383;28;1756;-55
2022/08/24 07:26:39;;;;;;;;;;;;;;;16.67;47.89;100384.19;5060034;28;1151;-55
2022/08/24 07:29:06;;;;;;;;;;;;;;;16.60;47.94;100391.94;5044335;28;1918;-55
2022/08/24 07:31:38;;;;;;;;;;;;;;;16.64;47.94;100393.00;5036369;28;1131;-56
2022/08/24 07:34:33;;;;;;;;;;;;;;;16.64;48.00;100397.69;5046126;28;1478;-57
2022/08/24 07:37:02;;;;;;;;;;;;;;;16.63;47.95;100391.34;5049469;28;1110;-57
2022/08/24 07:39:29;;;;;;;;;;;;;;;16.71;48.02;100398.19;5070069;28;1147;-53
2022/08/24 07:41:56;;;;;;;;;;;;;;;16.74;47.83;100398.41;5054747;28;1147;-56
2022/08/24 07:44:21;;;;;;;;;;;;;;;16.67;47.79;100402.59;5038513;28;1210;-56
2022/08/24 07:46:47;;;;;;;;;;;;;;;16.75;47.87;100402.81;5053358;28;1961;-55
2022/08/24 07:49:13;;;;;;;;;;;;;;;16.71;47.80;100409.97;5053300;28;1313;-58
2022/08/24 07:51:39;;;;;;;;;;;;;;;16.71;48.11;100404.47;5072142;28;1001;-58
2022/08/24 07:54:04;;;;;;;;;;;;;;;16.68;48.05;100396.00;5055542;28;2448;-57
2022/08/24 07:56:36;;;;;;;;;;;;;;;16.72;47.99;100395.16;5055612;28;1563;-57
2022/08/24 07:59:02;;;;;;;;;;;;;;;16.77;47.58;100408.03;5050729;28;1313;-58
2022/08/24 08:01:28;;;;;;;;;;;;;;;16.75;48.01;100405.56;5056189;28;1168;-57
2022/08/24 08:03:54;;;;;;;;;;;;;;;16.65;48.14;100400.13;5042442;28;1332;-57
2022/08/24 08:06:20;;;;;;;;;;;;;;;16.72;47.85;100391.59;5044014;28;1334;-57
2022/08/24 08:08:49;;;;;;;;;;;;;;;16.72;47.88;100378.69;5050556;28;1906;-57
2022/08/24 08:11:15;;;;;;;;;;;;;;;16.83;47.49;100378.59;5076697;28;1080;-57
2022/08/24 08:13:40;;;;;;;;;;;;;;;16.82;47.66;100374.25;5037116;28;1236;-59
2022/08/24 08:16:06;;;;;;;;;;;;;;;16.82;47.58;100376.97;5045683;28;1367;-58
2022/08/24 08:18:32;;;;;;;;;;;;;;;16.81;47.68;100380.81;5059858;28;962;-58
2022/08/24 08:21:02;;;;;;;;;;;;;;;16.83;47.85;100379.44;5048688;28;1140;-60
2022/08/24 08:26:19;;;;;;;;;;;;;;;16.82;48.06;100376.97;5045885;28;1150;-56
2022/08/24 08:29:09;;;;;;;;;;;;;;;16.91;47.87;100372.53;5053617;28;1961;-56
2022/08/24 08:31:36;;;;;;;;;;;;;;;16.85;47.88;100374.47;5059035;28;1297;-59
2022/08/24 08:34:02;;;;;;;;;;;;;;;16.85;47.86;100381.91;5050035;28;1142;-55
2022/08/24 08:36:28;;;;;;;;;;;;;;;16.91;47.82;100391.75;5043902;28;1266;-58
2022/08/24 08:38:53;;;;;;;;;;;;;;;16.89;48.10;100388.50;5026943;28;1618;-57
2022/08/24 08:41:31;;;;;;;;;;;;;;;16.90;47.84;100387.38;5044505;28;1290;-57
2022/08/24 08:44:15;;;;;;;;;;;;;;;16.91;47.93;100389.00;5059093;28;1525;-56
2022/08/24 08:47:00;;;;;;;;;;;;;;;17.01;47.66;100396.38;5037517;28;1238;-58
2022/08/24 08:49:50;;;;;;;;;;;;;;;16.93;47.82;100395.88;5047032;28;1208;-58
2022/08/24 08:52:26;;;;;;;;;;;;;;;16.94;47.99;100399.44;5048147;28;1242;-56
2022/08/24 08:54:52;;;;;;;;;;;;;;;16.89;47.81;100400.28;5032125;28;2393;-57
2022/08/24 08:57:21;;;;;;;;;;;;;;;17.03;47.60;100405.16;5051746;28;1194;-57
2022/08/24 08:59:47;;;;;;;;;;;;;;;16.88;48.04;100411.53;5056710;28;1029;-58
2022/08/24 09:02:16;;;;;;;;;;;;;;;16.96;47.83;100404.63;5053438;28;1188;-56
2022/08/24 09:05:03;;;;;;;;;;;;;;;17.03;47.90;100400.47;5050910;28;1398;-58
2022/08/24 09:07:38;;;;;;;;;;;;;;;17.03;47.74;100400.47;5064253;28;1980;-58
2022/08/24 09:10:37;;;;;;;;;;;;;;;17.03;48.04;100400.47;5059333;28;1147;-59
2022/08/24 09:13:10;;;;;;;;;;;;;;;17.02;48.04;100393.31;4965055;28;1182;-55
2022/08/24 09:15:55;;;;;;;;;;;;;;;16.98;48.20;100392.25;5048661;28;1429;-59
2022/08/24 09:18:21;;;;;;;;;;;;;;;17.13;47.88;100393.28;5048865;28;1064;-56
2022/08/24 09:21:23;;;;;;;;;;;;;;;17.03;48.00;100394.97;5044733;28;1727;-59
2022/08/24 09:23:51;;;;;;;;;;;;;;;17.05;48.12;100392.75;4959702;28;2359;-58
2022/08/24 09:26:19;;;;;;;;;;;;;;;17.07;47.99;100393.31;5044437;28;910;-59
2022/08/24 09:29:02;;;;;;;;;;;;;;;17.05;47.99;100397.44;5040102;28;1986;-57
2022/08/24 09:31:40;;;;;;;;;;;;;;;17.09;47.95;100402.06;5070699;28;1131;-58
2022/08/24 09:34:08;;;;;;;;;;;;;;;17.10;47.83;100395.47;5074847;28;1100;-58
2022/08/24 09:37:00;;;;;;;;;;;;;;;17.08;47.63;100394.13;5064904;28;950;-58
2022/08/24 09:39:25;;;;;;;;;;;;;;;17.07;47.85;100385.06;5026043;28;1262;-58
2022/08/24 09:41:54;;;;;;;;;;;;;;;17.13;47.51;100390.53;5068892;28;1027;-59
2022/08/24 09:44:32;;;;;;;;;;;;;;;17.15;47.50;100385.53;5071004;28;1048;-58
2022/08/24 09:46:57;;;;;;;;;;;;;;;17.07;47.98;100384.25;5063985;28;1972;-58
2022/08/24 09:49:42;;;;;;;;;;;;;;;17.14;47.59;100383.91;5061530;28;1035;-58
2022/08/24 09:52:17;;;;;;;;;;;;;;;17.15;47.68;100383.63;5047599;28;1076;-58
2022/08/24 09:54:46;;;;;;;;;;;;;;;17.14;47.72;100383.91;5069602;28;2358;-58
2022/08/24 09:57:14;;;;;;;;;;;;;;;17.17;47.88;100386.09;5076681;28;946;-57
2022/08/24 09:59:49;;;;;;;;;;;;;;;17.03;47.88;100364.75;5066943;28;953;-61
2022/08/24 10:02:21;;;;;;;;;;;;;;;17.22;47.68;100370.38;5058668;28;1024;-57
2022/08/24 10:04:50;;;;;;;;;;;;;;;17.17;47.51;100369.63;5065924;28;1075;-58
2022/08/24 10:07:33;;;;;;;;;;;;;;;17.14;47.95;100362.75;5053062;28;2026;-56
2022/08/24 10:10:28;;;;;;;;;;;;;;;17.22;47.53;100364.06;5051590;28;1077;-57
2022/08/24 10:13:12;;;;;;;;;;;;;;;17.17;47.64;100350.38;4983085;28;1202;-56
2022/08/24 10:15:47;;;;;;;;;;;;;;;17.14;47.83;100339.94;5066465;28;981;-57
2022/08/24 10:18:13;;;;;;;;;;;;;;;17.13;47.86;100335.59;5073994;28;1140;-57
2022/08/24 10:20:56;;;;;;;;;;;;;;;17.12;47.66;100325.69;5076031;28;950;-56
2022/08/24 10:23:51;;;;;;;;;;;;;;;17.11;47.70;100324.88;5067135;28;973;-57
2022/08/24 10:26:35;;;;;;;;;;;;;;;17.28;47.09;100307.97;5004185;28;1430;-58
2022/08/24 10:29:06;;;;;;;;;;;;;;;17.07;47.82;100297.16;5058029;28;1909;-58
2022/08/24 10:31:39;;;;;;;;;;;;;;;17.15;47.77;100295.69;5072294;28;1016;-58
2022/08/24 10:34:17;;;;;;;;;;;;;;;17.15;47.69;100297.63;5052125;28;1136;-55
2022/08/24 10:36:49;;;;;;;;;;;;;;;17.12;47.72;100304.53;5073685;28;1049;-56
2022/08/24 10:39:42;;;;;;;;;;;;;;;17.19;47.51;100321.50;5062794;28;877;-56
2022/08/24 10:45:06;;;;;;;;;;;;;;;17.24;47.42;100353.63;5062362;28;1173;-58
2022/08/24 10:47:34;;;;;;;;;;;;;;;17.20;47.69;100349.81;5063198;28;1898;-57
2022/08/24 10:50:19;;;;;;;;;;;;;;;17.31;47.14;100345.03;5064020;28;918;-61
2022/08/24 10:53:03;;;;;;;;;;;;;;;17.24;47.45;100348.13;5056461;28;1152;-61
2022/08/24 10:55:29;;;;;;;;;;;;;;;17.27;47.61;100364.03;5042133;28;2600;-60
2022/08/24 10:57:55;;;;;;;;;;;;;;;17.23;47.52;100366.50;5065984;28;1005;-56
2022/08/24 11:00:21;;;;;;;;;;;;;;;17.26;47.59;100363.22;5067352;28;1044;-59
2022/08/24 11:02:47;;;;;;;;;;;;;;;17.28;47.90;100371.97;5050072;28;1149;-61
2022/08/24 11:05:15;;;;;;;;;;;;;;;17.31;47.70;100372.53;5041055;28;1399;-58
2022/08/24 11:07:54;;;;;;;;;;;;;;;17.33;47.85;100382.09;5063434;28;1906;-55
2022/08/24 11:10:27;;;;;;;;;;;;;;;17.22;48.12;100392.38;5052741;28;1001;-58
2022/08/24 11:12:53;;;;;;;;;;;;;;;17.24;47.76;100392.09;5073982;28;1004;-59
2022/08/24 11:15:20;;;;;;;;;;;;;;;17.23;48.00;100387.69;5069561;28;1088;-60
2022/08/24 11:18:02;;;;;;;;;;;;;;;17.33;47.66;100382.09;5056022;28;965;-59
2022/08/24 11:20:27;;;;;;;;;;;;;;;17.29;47.72;100381.03;5062611;28;1104;-57
2022/08/24 11:22:58;;;;;;;;;;;;;;;17.32;47.91;100388.72;5062431;28;1032;-56
2022/08/24 11:25:25;;;;;;;;;;;;;;;17.29;47.68;100381.03;5049837;28;2456;-56
2022/08/24 11:27:51;;;;;;;;;;;;;;;17.33;47.66;100382.09;5064729;28;1976;-57
2022/08/24 11:30:16;;;;;;;;;;;;;;;17.28;48.00;100385.72;5051017;28;1407;-56
2022/08/24 11:32:46;;;;;;;;;;;;;;;17.35;47.81;100373.56;5072979;28;1036;-59
2022/08/24 11:35:18;;;;;;;;;;;;;;;17.27;47.81;100373.06;5072415;28;969;-58
2022/08/24 11:37:43;;;;;;;;;;;;;;;17.28;47.91;100373.91;5062027;28;990;-59
2022/08/24 11:40:09;;;;;;;;;;;;;;;17.27;47.80;100367.56;5075322;28;902;-58
2022/08/24 11:42:34;;;;;;;;;;;;;;;17.22;47.87;100361.31;5057474;28;954;-57
2022/08/24 11:45:29;;;;;;;;;;;;;;;17.31;47.53;100351.34;5073232;28;1033;-56
2022/08/24 11:47:55;;;;;;;;;;;;;;;17.30;47.73;100346.94;5040034;28;1983;-56
2022/08/24 11:50:22;;;;;;;;;;;;;;;17.31;47.50;100356.03;5074828;28;1025;-56
2022/08/24 11:52:54;;;;;;;;;;;;;;;17.33;47.60;100348.31;5047823;28;873;-55
2022/08/24 11:55:38;;;;;;;;;;;;;;;17.27;47.52;100344.78;5048278;28;2551;-56
2022/08/24 11:58:15;;;;;;;;;;;;;;;17.28;47.25;100330.75;5063253;28;1024;-56
2022/08/24 12:00:46;;;;;;;;;;;;;;;17.31;47.44;100337.59;5060571;28;977;-57
2022/08/24 12:03:17;;;;;;;;;;;;;;;17.28;47.38;100329.94;5060823;28;1155;-58
2022/08/24 12:05:45;;;;;;;;;;;;;;;17.24;47.63;100326.94;5063019;28;993;-57
2022/08/24 12:08:17;;;;;;;;;;;;;;;17.31;47.25;100323.88;5061928;28;1905;-57
2022/08/24 12:10:57;;;;;;;;;;;;;;;17.31;47.28;100328.56;5059508;28;1402;-56
2022/08/24 12:13:37;;;;;;;;;;;;;;;17.29;47.37;100328.81;5045181;28;1049;-58
2022/08/24 12:16:15;;;;;;;;;;;;;;;17.34;47.39;100328.78;5045786;28;1088;-58
2022/08/24 12:18:53;;;;;;;;;;;;;;;17.33;47.42;100327.13;5061660;28;1786;-58
2022/08/24 12:21:20;;;;;;;;;;;;;;;17.35;47.48;100322.19;5058567;28;1168;-57
2022/08/24 12:23:50;;;;;;;;;;;;;;;17.33;47.26;100326.31;5038899;28;1864;-57
2022/08/24 12:26:22;;;;;;;;;;;;;;;17.34;47.33;100315.03;5037128;28;1260;-57
2022/08/24 12:29:01;;;;;;;;;;;;;;;17.30;47.55;100311.22;5058310;28;2109;-57
2022/08/24 12:31:44;;;;;;;;;;;;;;;17.31;47.43;100310.13;5056194;28;1211;-55
2022/08/24 12:34:11;;;;;;;;;;;;;;;17.31;47.56;100306.56;5078361;28;1044;-56
2022/08/24 12:36:42;;;;;;;;;;;;;;;17.31;47.29;100318.38;5049199;28;1072;-58
2022/08/24 12:39:10;;;;;;;;;;;;;;;17.26;47.52;100312.91;5054197;28;985;-56
2022/08/24 12:41:37;;;;;;;;;;;;;;;17.35;47.33;100315.84;5071247;28;1001;-57
2022/08/24 12:44:12;;;;;;;;;;;;;;;17.34;47.40;100311.47;5060319;28;1033;-58
2022/08/24 12:46:38;;;;;;;;;;;;;;;17.45;46.97;100318.50;5047232;28;1130;-58
2022/08/24 12:49:12;;;;;;;;;;;;;;;17.47;47.14;100312.72;5040199;28;1996;-59
2022/08/24 12:51:56;;;;;;;;;;;;;;;17.45;47.26;100313.81;5053274;28;942;-59
2022/08/24 12:54:21;;;;;;;;;;;;;;;17.45;47.35;100308.31;5062371;28;1885;-60
2022/08/24 12:57:06;;;;;;;;;;;;;;;17.37;47.67;100311.69;5069931;28;1138;-61
2022/08/24 12:59:35;;;;;;;;;;;;;;;17.36;47.33;100296.34;5060624;28;1088;-56
2022/08/24 13:02:01;;;;;;;;;;;;;;;17.35;47.74;100288.38;5066511;28;1021;-56
2022/08/24 13:04:27;;;;;;;;;;;;;;;17.37;47.40;100291.66;5064534;28;926;-57
2022/08/24 13:06:59;;;;;;;;;;;;;;;14.68;54.32;100288.47;5068950;28;1013;-55
2022/08/24 13:09:35;;;;;;;;;;;;;;;16.30;49.62;100294.13;5073431;28;967;-56
2022/08/24 13:12:27;;;;;;;;;;;;;;;16.82;48.30;100305.59;5056292;28;1100;-55